createdAt,value
2023-02-22T00:01:38.053Z,9.14
2023-02-22T00:04:06.815Z,9.12
2023-02-22T00:06:39.202Z,9.05
2023-02-22T00:09:06.957Z,8.98
2023-02-22T00:11:35.514Z,8.92
2023-02-22T00:14:02.476Z,8.83
2023-02-22T00:16:30.813Z,8.72
2023-02-22T00:18:57.511Z,8.72
2023-02-22T00:21:23.972Z,8.67
2023-02-22T00:23:50.500Z,8.64
2023-02-22T00:26:20.141Z,8.61
2023-02-22T00:28:48.891Z,8.55
2023-02-22T00:31:16.144Z,8.50
2023-02-22T00:33:43.373Z,8.41
2023-02-22T00:36:12.647Z,8.36
2023-02-22T00:38:40.241Z,8.29
2023-02-22T00:41:07.210Z,8.14
2023-02-22T00:43:34.215Z,8.00
2023-02-22T00:46:01.088Z,7.89
2023-02-22T00:48:28.325Z,7.84
2023-02-22T00:50:57.701Z,7.85
2023-02-22T00:53:25.630Z,7.85
2023-02-22T00:55:53.119Z,7.83
2023-02-22T00:58:20.592Z,7.78
2023-02-22T01:00:47.774Z,7.75
2023-02-22T01:03:18.000Z,7.73
2023-02-22T01:05:45.269Z,7.59
2023-02-22T01:08:14.185Z,7.58
2023-02-22T01:10:41.075Z,7.54
2023-02-22T01:13:09.647Z,7.52
2023-02-22T01:15:39.312Z,7.47
2023-02-22T01:18:06.684Z,7.40
2023-02-22T01:20:33.757Z,7.37
2023-02-22T01:23:03.579Z,7.31
2023-02-22T01:25:31.869Z,7.20
2023-02-22T01:28:00.289Z,7.18
2023-02-22T01:30:30.028Z,7.15
2023-02-22T01:32:56.770Z,7.15
2023-02-22T01:35:27.847Z,7.15
2023-02-22T01:37:54.898Z,7.16
2023-02-22T01:40:28.584Z,7.18
2023-02-22T01:42:59.784Z,7.19
2023-02-22T01:45:35.256Z,7.20
2023-02-22T01:48:08.730Z,7.27
2023-02-22T01:50:44.417Z,7.26
2023-02-22T01:53:14.969Z,7.36
2023-02-22T01:55:42.482Z,7.40
2023-02-22T01:58:10.140Z,7.42
2023-02-22T02:00:36.801Z,7.45
2023-02-22T02:03:09.806Z,7.53
2023-02-22T02:05:37.871Z,7.54
2023-02-22T02:08:28.087Z,7.60
2023-02-22T02:10:56.351Z,7.63
2023-02-22T02:13:22.855Z,7.68
2023-02-22T02:15:52.888Z,7.69
2023-02-22T02:18:19.420Z,7.62
2023-02-22T02:21:10.115Z,7.66
2023-02-22T02:23:55.392Z,7.74
2023-02-22T02:26:30.182Z,7.78
2023-02-22T02:29:27.561Z,7.82
2023-02-22T02:32:06.524Z,7.85
2023-02-22T02:34:58.829Z,7.85
2023-02-22T02:37:40.807Z,7.88
2023-02-22T02:40:11.410Z,7.88
2023-02-22T02:43:01.306Z,7.90
2023-02-22T02:45:47.629Z,7.89
2023-02-22T02:48:17.356Z,7.90
2023-02-22T02:50:58.076Z,7.92
2023-02-22T02:53:37.284Z,7.95
2023-02-22T02:56:04.527Z,7.94
2023-02-22T02:58:31.172Z,7.96
2023-02-22T03:01:01.526Z,7.91
2023-02-22T03:03:37.510Z,7.93
2023-02-22T03:06:03.896Z,7.96
2023-02-22T03:09:04.114Z,7.95
2023-02-22T03:11:42.329Z,7.97
2023-02-22T03:14:41.177Z,7.97
2023-02-22T03:17:23.749Z,8.02
2023-02-22T03:20:04.671Z,8.06
2023-02-22T03:22:48.066Z,8.09
2023-02-22T03:25:16.316Z,8.12
2023-02-22T03:27:46.390Z,8.12
2023-02-22T03:30:25.941Z,8.10
2023-02-22T03:33:10.727Z,8.09
2023-02-22T03:36:15.296Z,8.08
2023-02-22T03:38:44.313Z,8.05
2023-02-22T03:41:24.061Z,8.04
2023-02-22T03:44:05.395Z,8.06
2023-02-22T03:46:41.290Z,8.07
2023-02-22T03:49:25.855Z,8.04
2023-02-22T03:51:52.587Z,8.02
2023-02-22T03:54:19.158Z,8.03
2023-02-22T03:57:00.623Z,8.00
2023-02-22T03:59:28.019Z,8.04
2023-02-22T04:01:55.451Z,8.04
2023-02-22T04:04:21.997Z,7.99
2023-02-22T04:06:48.581Z,8.00
2023-02-22T04:09:15.990Z,7.99
2023-02-22T04:11:42.527Z,7.94
2023-02-22T04:14:09.242Z,7.93
2023-02-22T04:16:35.761Z,7.87
2023-02-22T04:19:02.447Z,7.85
2023-02-22T04:21:28.854Z,7.77
2023-02-22T04:23:55.299Z,7.75
2023-02-22T04:26:21.735Z,7.77
2023-02-22T04:28:48.200Z,7.75
2023-02-22T04:31:15.650Z,7.77
2023-02-22T04:33:42.864Z,7.81
2023-02-22T04:36:10.724Z,7.83
2023-02-22T04:38:37.471Z,7.82
2023-02-22T04:41:03.984Z,7.82
2023-02-22T04:43:30.534Z,7.77
2023-02-22T04:45:57.081Z,7.69
2023-02-22T04:48:23.607Z,7.65
2023-02-22T04:50:51.153Z,7.64
2023-02-22T04:53:17.749Z,7.64
2023-02-22T04:55:44.238Z,7.68
2023-02-22T04:58:10.740Z,7.66
2023-02-22T05:00:37.222Z,7.70
2023-02-22T05:03:04.130Z,7.70
2023-02-22T05:05:30.581Z,7.57
2023-02-22T05:07:57.292Z,7.61
2023-02-22T05:10:24.836Z,7.62
2023-02-22T05:12:51.783Z,7.60
2023-02-22T05:15:20.422Z,7.65
2023-02-22T05:17:47.262Z,7.56
2023-02-22T05:20:22.980Z,7.56
2023-02-22T05:22:49.545Z,7.48
2023-02-22T05:25:16.381Z,7.47
2023-02-22T05:27:42.880Z,7.43
2023-02-22T05:30:11.842Z,7.38
2023-02-22T05:32:38.498Z,7.39
2023-02-22T05:35:06.039Z,7.31
2023-02-22T05:37:32.585Z,7.31
2023-02-22T05:39:59.451Z,7.27
2023-02-22T05:42:25.921Z,7.31
2023-02-22T05:44:52.389Z,7.30
2023-02-22T05:47:28.066Z,7.24
2023-02-22T05:49:54.509Z,7.26
2023-02-22T05:52:21.207Z,7.28
2023-02-22T05:54:47.653Z,7.34
2023-02-22T05:57:14.442Z,7.35
2023-02-22T05:59:41.081Z,7.37
2023-02-22T06:02:08.505Z,7.42
2023-02-22T06:04:35.286Z,7.45
2023-02-22T06:07:01.732Z,7.47
2023-02-22T06:09:28.203Z,7.52
2023-02-22T06:11:55.220Z,7.49
2023-02-22T06:14:21.638Z,7.49
2023-02-22T06:16:56.173Z,7.46
2023-02-22T06:19:23.095Z,7.38
2023-02-22T06:21:53.994Z,7.37
2023-02-22T06:24:21.219Z,7.31
2023-02-22T06:26:54.168Z,7.30
2023-02-22T06:29:20.627Z,7.30
2023-02-22T06:31:47.182Z,7.33
2023-02-22T06:34:13.697Z,7.35
2023-02-22T06:36:40.129Z,7.41
2023-02-22T06:39:06.576Z,7.43
2023-02-22T06:41:37.186Z,7.44
2023-02-22T06:44:03.801Z,7.41
2023-02-22T06:46:30.316Z,7.46
2023-02-22T06:48:59.422Z,7.36
2023-02-22T06:51:27.363Z,7.36
2023-02-22T06:53:53.822Z,7.39
2023-02-22T06:56:20.976Z,7.40
2023-02-22T06:58:49.368Z,7.43
2023-02-22T07:01:16.577Z,7.39
2023-02-22T07:03:43.440Z,7.44
2023-02-22T07:06:10.770Z,7.40
2023-02-22T07:08:37.357Z,7.45
2023-02-22T07:11:04.008Z,7.48
2023-02-22T07:13:30.459Z,7.50
2023-02-22T07:15:56.949Z,7.52
2023-02-22T07:18:24.141Z,7.50
2023-02-22T07:20:50.852Z,7.48
2023-02-22T07:23:17.809Z,7.47
2023-02-22T07:25:44.527Z,7.47
2023-02-22T07:28:11.628Z,7.50
2023-02-22T07:30:38.317Z,7.45
2023-02-22T07:33:10.545Z,7.49
2023-02-22T07:35:46.536Z,7.47
2023-02-22T07:38:15.224Z,7.43
2023-02-22T07:40:42.548Z,7.40
2023-02-22T07:43:21.382Z,7.47
2023-02-22T07:45:50.031Z,7.45
2023-02-22T07:48:18.353Z,7.50
2023-02-22T07:50:45.061Z,7.52
2023-02-22T07:53:33.150Z,7.47
2023-02-22T07:56:01.944Z,7.50
2023-02-22T07:58:32.254Z,7.46
2023-02-22T08:00:59.489Z,7.42
2023-02-22T08:03:26.989Z,7.48
2023-02-22T08:05:55.885Z,7.55
2023-02-22T08:08:23.572Z,7.57
2023-02-22T08:10:51.381Z,7.59
2023-02-22T08:13:19.041Z,7.54
2023-02-22T08:15:47.210Z,7.57
2023-02-22T08:18:16.621Z,7.69
2023-02-22T08:20:44.729Z,7.74
2023-02-22T08:23:14.478Z,7.80
2023-02-22T08:25:41.383Z,7.82
2023-02-22T08:28:11.982Z,7.87
2023-02-22T08:30:40.664Z,7.94
2023-02-22T08:33:07.559Z,7.96
2023-02-22T08:35:34.431Z,7.98
2023-02-22T08:38:03.783Z,7.99
2023-02-22T08:40:33.493Z,8.00
2023-02-22T08:43:01.606Z,8.06
2023-02-22T08:45:28.686Z,8.08
2023-02-22T08:47:55.371Z,8.16
2023-02-22T08:50:27.772Z,8.25
2023-02-22T08:52:58.612Z,8.34
2023-02-22T08:55:27.268Z,8.40
2023-02-22T08:57:53.702Z,8.47
2023-02-22T09:00:24.653Z,8.55
2023-02-22T09:02:52.511Z,8.63
2023-02-22T09:05:19.229Z,8.68
2023-02-22T09:07:46.073Z,8.79
2023-02-22T09:10:24.452Z,8.80
2023-02-22T09:12:58.051Z,8.98
2023-02-22T09:15:25.965Z,9.03
2023-02-22T09:17:53.683Z,9.10
2023-02-22T09:20:21.999Z,9.19
2023-02-22T09:22:49.530Z,9.30
2023-02-22T09:25:17.711Z,9.32
2023-02-22T09:27:47.915Z,9.38
2023-02-22T09:30:20.778Z,9.47
2023-02-22T09:32:47.395Z,9.58
2023-02-22T09:35:14.311Z,9.65
2023-02-22T09:37:44.552Z,9.73
2023-02-22T09:40:25.134Z,9.77
2023-02-22T09:43:27.728Z,9.89
2023-02-22T09:46:02.735Z,10.02
2023-02-22T09:48:33.923Z,10.16
2023-02-22T09:51:03.258Z,10.22
2023-02-22T09:53:41.674Z,10.33
2023-02-22T09:56:14.544Z,10.43
2023-02-22T09:58:54.817Z,10.57
2023-02-22T10:01:44.928Z,10.70
2023-02-22T10:04:47.500Z,10.87
2023-02-22T10:07:34.488Z,11.02
2023-02-22T10:10:06.332Z,11.10
2023-02-22T10:12:44.916Z,11.27
2023-02-22T10:15:23.699Z,11.32
2023-02-22T10:18:03.432Z,11.44
2023-02-22T10:20:54.015Z,11.57
2023-02-22T10:23:51.796Z,11.64
2023-02-22T10:26:28.233Z,11.79
2023-02-22T10:29:07.120Z,11.99
2023-02-22T10:31:40.640Z,12.18
2023-02-22T10:34:33.576Z,12.26
2023-02-22T10:37:21.017Z,12.43
2023-02-22T10:39:48.838Z,12.46
2023-02-22T10:42:15.829Z,12.54
2023-02-22T10:44:42.462Z,12.63
2023-02-22T10:47:16.600Z,12.81
2023-02-22T10:49:48.951Z,12.94
2023-02-22T10:52:26.143Z,13.02
2023-02-22T10:55:01.036Z,13.22
2023-02-22T10:57:36.400Z,13.31
2023-02-22T11:00:26.149Z,13.52
2023-02-22T11:03:00.383Z,13.64
2023-02-22T11:05:41.275Z,13.74
2023-02-22T11:08:15.962Z,13.95
2023-02-22T11:10:45.961Z,14.14
2023-02-22T11:13:26.467Z,14.27
2023-02-22T11:16:00.231Z,14.46
2023-02-22T11:18:35.915Z,14.59
2023-02-22T11:21:10.200Z,14.71
2023-02-22T11:23:39.010Z,14.98
2023-02-22T11:26:14.541Z,15.29
2023-02-22T11:28:49.321Z,15.61
2023-02-22T11:31:22.509Z,15.78
2023-02-22T11:36:37.909Z,16.21
2023-02-22T11:39:11.404Z,16.46
2023-02-22T11:41:38.078Z,16.68
2023-02-22T11:44:32.477Z,16.96
2023-02-22T11:47:06.852Z,17.32
2023-02-22T11:49:38.185Z,17.43
2023-02-22T11:52:22.940Z,17.70
2023-02-22T11:55:07.952Z,17.89
2023-02-22T11:57:46.446Z,18.06
2023-02-22T12:00:16.338Z,18.26
2023-02-22T12:03:04.638Z,18.26
2023-02-22T12:05:40.638Z,18.48
2023-02-22T12:08:19.632Z,18.75
2023-02-22T12:11:06.333Z,19.13
2023-02-22T12:13:58.516Z,18.93
2023-02-22T12:16:46.717Z,19.22
2023-02-22T12:19:30.839Z,19.35
2023-02-22T12:22:03.069Z,19.67
2023-02-22T12:24:45.258Z,19.98
2023-02-22T12:27:18.862Z,20.21
2023-02-22T12:29:51.099Z,20.48
2023-02-22T12:32:38.089Z,20.81
2023-02-22T12:35:23.431Z,21.08
2023-02-22T12:38:12.343Z,21.36
2023-02-22T12:40:58.005Z,21.49
2023-02-22T12:43:34.610Z,21.69
2023-02-22T12:46:11.418Z,21.86
2023-02-22T12:48:47.626Z,22.31
2023-02-22T12:51:43.007Z,22.45
2023-02-22T12:54:21.284Z,22.12
2023-02-22T12:56:54.596Z,22.59
2023-02-22T12:59:29.375Z,22.78
2023-02-22T13:02:01.406Z,23.15
2023-02-22T13:04:31.788Z,23.40
2023-02-22T13:07:18.600Z,23.16
2023-02-22T13:10:14.432Z,22.72
2023-02-22T13:12:52.296Z,21.41
2023-02-22T13:15:31.209Z,21.99
2023-02-22T13:18:06.861Z,21.91
2023-02-22T13:20:42.267Z,21.53
2023-02-22T13:23:30.213Z,21.31
2023-02-22T13:26:29.033Z,20.92
2023-02-22T13:29:03.059Z,21.05
2023-02-22T13:31:40.880Z,20.78
2023-02-22T13:34:36.938Z,20.85
2023-02-22T13:37:17.724Z,21.22
2023-02-22T13:40:48.887Z,21.37
2023-02-22T13:43:52.930Z,21.16
2023-02-22T13:46:25.475Z,20.73
2023-02-22T13:48:54.902Z,20.31
2023-02-22T13:51:42.769Z,20.61
2023-02-22T13:54:16.141Z,20.61
2023-02-22T13:56:45.416Z,20.56
2023-02-22T13:59:35.986Z,19.77
2023-02-22T14:02:05.514Z,19.84
2023-02-22T14:04:38.192Z,19.18
2023-02-22T14:07:29.688Z,18.85
2023-02-22T14:09:59.137Z,18.63
2023-02-22T14:12:34.757Z,18.71
2023-02-22T14:15:26.511Z,18.41
2023-02-22T14:18:04.997Z,18.15
2023-02-22T14:20:40.138Z,18.17
2023-02-22T14:23:31.379Z,17.99
2023-02-22T14:26:17.763Z,18.08
2023-02-22T14:29:02.837Z,17.97
2023-02-22T14:31:38.031Z,18.01
2023-02-22T14:34:11.699Z,17.65
2023-02-22T14:37:13.952Z,17.84
2023-02-22T14:39:50.955Z,18.31
2023-02-22T14:42:28.769Z,18.73
2023-02-22T14:45:27.382Z,18.31
2023-02-22T14:48:25.019Z,18.25
2023-02-22T14:50:57.229Z,18.34
2023-02-22T14:54:01.979Z,18.13
2023-02-22T14:56:41.018Z,18.01
2023-02-22T14:59:17.551Z,18.14
2023-02-22T15:01:58.707Z,18.12
2023-02-22T15:04:32.747Z,18.22
2023-02-22T15:07:07.692Z,18.14
2023-02-22T15:09:37.499Z,17.79
2023-02-22T15:12:04.049Z,17.80
2023-02-22T15:14:39.078Z,17.62
2023-02-22T15:17:17.168Z,17.67
2023-02-22T15:19:44.008Z,17.65
2023-02-22T15:22:25.306Z,17.42
2023-02-22T15:25:05.148Z,17.40
2023-02-22T15:27:36.857Z,17.42
2023-02-22T15:30:20.139Z,17.14
2023-02-22T15:33:02.636Z,17.07
2023-02-22T15:35:33.380Z,17.00
2023-02-22T15:38:12.175Z,16.93
2023-02-22T15:40:43.103Z,16.75
2023-02-22T15:43:24.883Z,16.77
2023-02-22T15:45:52.105Z,16.58
2023-02-22T15:48:19.221Z,16.53
2023-02-22T15:51:07.273Z,16.46
2023-02-22T15:53:43.821Z,16.34
2023-02-22T15:56:39.581Z,16.32
2023-02-22T15:59:13.576Z,16.21
2023-02-22T16:01:43.446Z,16.21
2023-02-22T16:04:24.494Z,16.08
2023-02-22T16:07:01.006Z,16.08
2023-02-22T16:09:30.266Z,16.02
2023-02-22T16:12:21.921Z,15.95
2023-02-22T16:14:49.041Z,15.98
2023-02-22T16:17:24.739Z,15.84
2023-02-22T16:19:52.566Z,15.76
2023-02-22T16:22:28.009Z,15.77
2023-02-22T16:25:16.207Z,15.62
2023-02-22T16:27:47.780Z,15.56
2023-02-22T16:30:29.439Z,15.53
2023-02-22T16:32:57.320Z,15.57
2023-02-22T16:35:32.611Z,15.46
2023-02-22T16:38:04.919Z,15.38
2023-02-22T16:40:36.188Z,15.38
2023-02-22T16:43:06.491Z,15.33
2023-02-22T16:45:33.101Z,15.30
2023-02-22T16:48:00.409Z,15.25
2023-02-22T16:50:27.067Z,15.18
2023-02-22T16:52:55.690Z,15.17
2023-02-22T16:55:22.642Z,15.12
2023-02-22T16:57:50.513Z,15.06
2023-02-22T17:00:31.002Z,15.01
2023-02-22T17:03:05.525Z,14.95
2023-02-22T17:05:36.229Z,14.87
2023-02-22T17:08:04.208Z,14.90
2023-02-22T17:10:30.777Z,14.92
2023-02-22T17:12:58.529Z,14.90
2023-02-22T17:15:28.154Z,14.82
2023-02-22T17:17:56.251Z,14.81
2023-02-22T17:20:32.708Z,14.81
2023-02-22T17:23:05.008Z,14.79
2023-02-22T17:25:41.942Z,14.77
2023-02-22T17:28:09.132Z,14.73
2023-02-22T17:30:36.625Z,14.70
2023-02-22T17:33:06.446Z,14.64
2023-02-22T17:35:37.185Z,14.55
2023-02-22T17:38:06.142Z,14.56
2023-02-22T17:40:35.083Z,14.58
2023-02-22T17:43:01.901Z,14.57
2023-02-22T17:45:29.947Z,14.50
2023-02-22T17:47:59.035Z,14.46
2023-02-22T17:50:27.005Z,14.34
2023-02-22T17:52:53.831Z,14.30
2023-02-22T17:55:21.445Z,14.23
2023-02-22T17:57:53.131Z,14.28
2023-02-22T18:00:23.574Z,14.20
2023-02-22T18:02:51.493Z,14.20
2023-02-22T18:05:19.039Z,14.26
2023-02-22T18:07:46.914Z,14.16
2023-02-22T18:10:13.735Z,14.14
2023-02-22T18:12:41.418Z,14.18
2023-02-22T18:15:10.763Z,14.07
2023-02-22T18:17:38.102Z,14.06
2023-02-22T18:20:11.631Z,13.98
2023-02-22T18:22:42.091Z,14.02
2023-02-22T18:25:10.647Z,13.98
2023-02-22T18:27:37.595Z,13.93
2023-02-22T18:30:05.985Z,13.78
2023-02-22T18:32:33.534Z,13.73
2023-02-22T18:35:00.677Z,13.75
2023-02-22T18:37:29.944Z,13.69
2023-02-22T18:39:57.759Z,13.67
2023-02-22T18:42:28.497Z,13.57
2023-02-22T18:45:00.579Z,13.62
2023-02-22T18:47:27.420Z,13.53
2023-02-22T18:49:54.165Z,13.39
2023-02-22T18:52:21.075Z,13.35
2023-02-22T18:54:49.924Z,13.40
2023-02-22T18:57:16.991Z,13.36
2023-02-22T18:59:44.038Z,13.34
2023-02-22T19:02:14.053Z,13.34
2023-02-22T19:04:40.942Z,13.32
2023-02-22T19:07:07.402Z,13.32
2023-02-22T19:09:33.873Z,13.22
2023-02-22T19:12:00.411Z,13.25
2023-02-22T19:14:26.906Z,13.20
2023-02-22T19:16:56.473Z,13.12
2023-02-22T19:19:26.070Z,13.21
2023-02-22T19:21:53.098Z,13.19
2023-02-22T19:24:20.400Z,13.10
2023-02-22T19:26:57.228Z,12.98
2023-02-22T19:29:23.947Z,12.86
2023-02-22T19:31:51.682Z,12.88
2023-02-22T19:34:21.802Z,12.85
2023-02-22T19:36:49.008Z,12.82
2023-02-22T19:39:17.532Z,12.77
2023-02-22T19:41:44.292Z,12.74
2023-02-22T19:44:12.171Z,12.61
2023-02-22T19:46:39.573Z,12.55
2023-02-22T19:49:07.286Z,12.57
2023-02-22T19:51:34.251Z,12.40
2023-02-22T19:54:06.506Z,12.37
2023-02-22T19:56:35.486Z,12.38
2023-02-22T19:59:13.365Z,12.34
2023-02-22T20:01:41.303Z,12.33
2023-02-22T20:04:10.445Z,12.28
2023-02-22T20:06:42.486Z,12.21
2023-02-22T20:09:12.867Z,12.23
2023-02-22T20:11:39.439Z,12.15
2023-02-22T20:14:06.416Z,12.21
2023-02-22T20:16:34.638Z,12.20
2023-02-22T20:19:01.298Z,12.21
2023-02-22T20:21:32.593Z,12.25
2023-02-22T20:24:03.145Z,12.23
2023-02-22T20:26:32.174Z,12.19
2023-02-22T20:28:59.541Z,12.15
2023-02-22T20:31:26.987Z,12.16
2023-02-22T20:33:55.640Z,12.06
2023-02-22T20:36:22.484Z,12.02
2023-02-22T20:38:53.918Z,12.02
2023-02-22T20:41:29.381Z,12.02
2023-02-22T20:43:56.865Z,12.04
2023-02-22T20:46:24.932Z,12.01
2023-02-22T20:48:55.955Z,11.99
2023-02-22T20:51:23.291Z,11.98
2023-02-22T20:53:50.207Z,11.96
2023-02-22T20:56:24.154Z,11.94
2023-02-22T20:58:51.084Z,11.89
2023-02-22T21:01:20.177Z,11.85
2023-02-22T21:03:46.985Z,11.88
2023-02-22T21:06:15.835Z,11.79
2023-02-22T21:08:49.259Z,11.75
2023-02-22T21:11:17.733Z,11.77
2023-02-22T21:13:44.388Z,11.72
2023-02-22T21:16:18.718Z,11.77
2023-02-22T21:18:45.406Z,11.74
2023-02-22T21:21:12.554Z,11.74
2023-02-22T21:23:40.546Z,11.74
2023-02-22T21:26:13.324Z,11.78
2023-02-22T21:28:50.818Z,11.80
2023-02-22T21:31:18.867Z,11.77
2023-02-22T21:33:49.339Z,11.80
2023-02-22T21:36:16.311Z,11.76
2023-02-22T21:38:45.253Z,11.76
2023-02-22T21:41:13.029Z,11.67
2023-02-22T21:43:40.081Z,11.66
2023-02-22T21:46:10.585Z,11.70
2023-02-22T21:48:45.097Z,11.69
2023-02-22T21:51:14.083Z,11.60
2023-02-22T21:53:48.510Z,11.68
2023-02-22T21:56:18.886Z,11.63
2023-02-22T21:58:47.071Z,11.61
2023-02-22T22:01:17.390Z,11.62
2023-02-22T22:03:46.048Z,11.57
2023-02-22T22:06:14.045Z,11.50
2023-02-22T22:08:42.850Z,11.62
2023-02-22T22:11:11.213Z,11.64
2023-02-22T22:13:40.387Z,11.61
2023-02-22T22:16:12.197Z,11.59
2023-02-22T22:18:40.030Z,11.51
2023-02-22T22:21:22.676Z,11.60
2023-02-22T22:23:50.744Z,11.56
2023-02-22T22:26:19.944Z,11.48
2023-02-22T22:28:52.592Z,11.48
2023-02-22T22:31:21.446Z,11.46
2023-02-22T22:33:48.175Z,11.45
2023-02-22T22:36:17.095Z,11.44
2023-02-22T22:38:47.101Z,11.40
2023-02-22T22:41:16.638Z,11.33
2023-02-22T22:43:46.237Z,11.28
2023-02-22T22:46:15.376Z,11.28
2023-02-22T22:48:42.897Z,11.23
2023-02-22T22:51:12.478Z,11.26
2023-02-22T22:53:43.407Z,11.26
2023-02-22T22:56:25.941Z,11.23
2023-02-22T22:58:55.337Z,11.24
2023-02-22T23:01:27.922Z,11.15
2023-02-22T23:04:02.094Z,11.08
2023-02-22T23:06:32.947Z,11.04
2023-02-22T23:09:01.532Z,11.12
2023-02-22T23:11:30.147Z,11.09
2023-02-22T23:13:56.736Z,11.07
2023-02-22T23:16:24.273Z,11.10
2023-02-22T23:18:51.438Z,11.12
2023-02-22T23:21:19.791Z,11.06
2023-02-22T23:23:51.498Z,11.10
2023-02-22T23:26:18.176Z,11.08
2023-02-22T23:28:47.138Z,11.08
2023-02-22T23:31:16.971Z,11.09
2023-02-22T23:33:48.134Z,11.09
2023-02-22T23:36:16.511Z,11.14
2023-02-22T23:38:43.779Z,11.14
2023-02-22T23:41:12.933Z,11.09
2023-02-22T23:43:40.681Z,11.12
2023-02-22T23:46:12.989Z,11.11
2023-02-22T23:48:46.682Z,11.11
2023-02-22T23:51:16.163Z,11.07
2023-02-22T23:53:55.461Z,11.04
2023-02-22T23:56:28.511Z,11.07
2023-02-22T23:58:57.442Z,11.05
